GFA110 OEDF-OBBI
Flight info
| Callsign | GFA110 |
|---|---|
| Flight time | 0h 18m |
| Altitude | 7000 |
| Route | LADN1E LADNA LADNA1 |
| Aircraft | A321/M-SDE3FGHIRWY/LB1 |
Departure
| Time | 2026-05-06 16:09 |
|---|---|
| Airport | King Fahd International Airport (OEDF) |
Arrival
| Time | 2026-05-06 16:28 |
|---|---|
| Airport | Bahrain International Airport (OBBI) |
| Time | Latitude | Longitude | Altitude | Speed | Heading |
|---|---|---|---|---|---|
| 2026-05-06 15:51 | 26.46566 | 49.79580 | 73 ft | 0 kts | 85° |
| 2026-05-06 16:01 | 26.46566 | 49.79579 | 78 ft | 2 kts | 85° |
| 2026-05-06 16:01 | 26.46565 | 49.79552 | 75 ft | 4 kts | 91° |
| 2026-05-06 16:01 | 26.46567 | 49.79523 | 68 ft | 4 kts | 102° |
| 2026-05-06 16:02 | 26.46575 | 49.79498 | 67 ft | 4 kts | 131° |
| 2026-05-06 16:02 | 26.46589 | 49.79486 | 70 ft | 0 kts | 174° |
| 2026-05-06 16:04 | 26.46581 | 49.79487 | 71 ft | 2 kts | 174° |
| 2026-05-06 16:04 | 26.46556 | 49.79490 | 69 ft | 5 kts | 173° |
| 2026-05-06 16:04 | 26.46517 | 49.79495 | 72 ft | 7 kts | 178° |
| 2026-05-06 16:05 | 26.46473 | 49.79471 | 78 ft | 8 kts | 228° |
| 2026-05-06 16:05 | 26.46455 | 49.79407 | 75 ft | 9 kts | 255° |
| 2026-05-06 16:05 | 26.46434 | 49.79332 | 73 ft | 11 kts | 251° |
| 2026-05-06 16:05 | 26.46403 | 49.79251 | 75 ft | 12 kts | 227° |
| 2026-05-06 16:06 | 26.46321 | 49.79245 | 76 ft | 13 kts | 166° |
| 2026-05-06 16:06 | 26.46229 | 49.79275 | 79 ft | 14 kts | 163° |
| 2026-05-06 16:06 | 26.46128 | 49.79306 | 74 ft | 16 kts | 165° |
| 2026-05-06 16:06 | 26.46019 | 49.79342 | 83 ft | 17 kts | 163° |
| 2026-05-06 16:07 | 26.45900 | 49.79377 | 82 ft | 18 kts | 165° |
| 2026-05-06 16:07 | 26.45775 | 49.79415 | 82 ft | 19 kts | 164° |
| 2026-05-06 16:07 | 26.45643 | 49.79456 | 83 ft | 20 kts | 164° |
| 2026-05-06 16:07 | 26.45505 | 49.79496 | 84 ft | 20 kts | 182° |
| 2026-05-06 16:08 | 26.45452 | 49.79421 | 82 ft | 11 kts | 251° |
| 2026-05-06 16:08 | 26.45426 | 49.79330 | 82 ft | 13 kts | 257° |
| 2026-05-06 16:08 | 26.45410 | 49.79223 | 74 ft | 14 kts | 279° |
| 2026-05-06 16:08 | 26.45503 | 49.79175 | 75 ft | 27 kts | 345° |
| 2026-05-06 16:09 | 26.45948 | 49.79036 | 74 ft | 103 kts | 344° |
| 2026-05-06 16:09 | 26.46840 | 49.78761 | 82 ft | 160 kts | 344° |
| 2026-05-06 16:09 | 26.47910 | 49.78421 | 752 ft | 158 kts | 348° |
| 2026-05-06 16:09 | 26.48975 | 49.78096 | 1439 ft | 162 kts | 348° |
| 2026-05-06 16:10 | 26.50133 | 49.78215 | 1741 ft | 182 kts | 25° |
| 2026-05-06 16:10 | 26.51007 | 49.79338 | 1898 ft | 212 kts | 69° |
| 2026-05-06 16:10 | 26.51161 | 49.81074 | 2044 ft | 239 kts | 88° |
| 2026-05-06 16:10 | 26.51040 | 49.83003 | 2249 ft | 260 kts | 94° |
| 2026-05-06 16:11 | 26.50821 | 49.85074 | 2660 ft | 274 kts | 96° |
| 2026-05-06 16:11 | 26.50584 | 49.87204 | 3259 ft | 278 kts | 97° |
| 2026-05-06 16:11 | 26.50359 | 49.89363 | 3861 ft | 281 kts | 98° |
| 2026-05-06 16:11 | 26.50150 | 49.91540 | 4498 ft | 284 kts | 98° |
| 2026-05-06 16:12 | 26.49953 | 49.93739 | 5115 ft | 286 kts | 97° |
| 2026-05-06 16:12 | 26.49766 | 49.95956 | 5721 ft | 289 kts | 98° |
| 2026-05-06 16:12 | 26.49581 | 49.98211 | 6294 ft | 294 kts | 98° |
| 2026-05-06 16:12 | 26.49396 | 50.00500 | 6801 ft | 299 kts | 97° |
| 2026-05-06 16:13 | 26.49214 | 50.02819 | 6961 ft | 300 kts | 97° |
| 2026-05-06 16:13 | 26.49032 | 50.05135 | 7006 ft | 300 kts | 96° |
| 2026-05-06 16:13 | 26.48847 | 50.07458 | 7012 ft | 300 kts | 97° |
| 2026-05-06 16:13 | 26.48662 | 50.09782 | 7013 ft | 301 kts | 97° |
| 2026-05-06 16:14 | 26.48476 | 50.12130 | 7011 ft | 300 kts | 97° |
| 2026-05-06 16:14 | 26.48291 | 50.14447 | 7013 ft | 300 kts | 97° |
| 2026-05-06 16:14 | 26.48104 | 50.16769 | 7016 ft | 300 kts | 97° |
| 2026-05-06 16:14 | 26.47916 | 50.19090 | 7016 ft | 300 kts | 97° |
| 2026-05-06 16:15 | 26.47730 | 50.21407 | 7017 ft | 300 kts | 96° |
| 2026-05-06 16:15 | 26.47541 | 50.23727 | 7012 ft | 300 kts | 97° |
| 2026-05-06 16:15 | 26.47352 | 50.26043 | 7012 ft | 300 kts | 97° |
| 2026-05-06 16:15 | 26.47160 | 50.28362 | 7015 ft | 300 kts | 97° |
| 2026-05-06 16:16 | 26.46967 | 50.30686 | 7017 ft | 300 kts | 97° |
| 2026-05-06 16:16 | 26.46774 | 50.33007 | 7021 ft | 301 kts | 97° |
| 2026-05-06 16:16 | 26.46581 | 50.35331 | 7024 ft | 301 kts | 97° |
| 2026-05-06 16:16 | 26.46363 | 50.37645 | 7028 ft | 299 kts | 102° |
| 2026-05-06 16:17 | 26.45802 | 50.39868 | 7027 ft | 298 kts | 111° |
| 2026-05-06 16:17 | 26.45152 | 50.42063 | 7034 ft | 298 kts | 110° |
| 2026-05-06 16:17 | 26.44503 | 50.44262 | 7030 ft | 298 kts | 110° |
| 2026-05-06 16:17 | 26.43857 | 50.46460 | 7029 ft | 299 kts | 111° |
| 2026-05-06 16:18 | 26.43213 | 50.48650 | 6811 ft | 296 kts | 111° |
| 2026-05-06 16:18 | 26.42571 | 50.50831 | 6435 ft | 295 kts | 109° |
| 2026-05-06 16:18 | 26.41936 | 50.52990 | 6205 ft | 292 kts | 109° |
| 2026-05-06 16:18 | 26.41306 | 50.55137 | 5964 ft | 291 kts | 111° |
| 2026-05-06 16:19 | 26.40674 | 50.57278 | 5726 ft | 290 kts | 110° |
| 2026-05-06 16:19 | 26.40041 | 50.59417 | 5492 ft | 290 kts | 109° |
| 2026-05-06 16:19 | 26.39418 | 50.61536 | 5247 ft | 287 kts | 109° |
| 2026-05-06 16:19 | 26.38801 | 50.63638 | 5080 ft | 283 kts | 110° |
| 2026-05-06 16:20 | 26.38185 | 50.65727 | 5022 ft | 284 kts | 109° |
| 2026-05-06 16:20 | 26.37563 | 50.67828 | 5027 ft | 286 kts | 109° |
| 2026-05-06 16:20 | 26.36939 | 50.69933 | 5033 ft | 286 kts | 109° |
| 2026-05-06 16:20 | 26.36130 | 50.71940 | 5025 ft | 284 kts | 122° |
| 2026-05-06 16:21 | 26.35074 | 50.73780 | 4705 ft | 281 kts | 123° |
| 2026-05-06 16:21 | 26.34008 | 50.75621 | 4188 ft | 277 kts | 123° |
| 2026-05-06 16:21 | 26.32964 | 50.77423 | 3775 ft | 276 kts | 123° |
| 2026-05-06 16:21 | 26.31946 | 50.79186 | 3503 ft | 260 kts | 123° |
| 2026-05-06 16:22 | 26.31015 | 50.80802 | 3297 ft | 239 kts | 123° |
| 2026-05-06 16:22 | 26.29990 | 50.82180 | 2901 ft | 224 kts | 146° |
| 2026-05-06 16:22 | 26.28627 | 50.82680 | 2788 ft | 195 kts | 177° |
| 2026-05-06 16:22 | 26.27324 | 50.82677 | 2549 ft | 183 kts | 182° |
| 2026-05-06 16:23 | 26.26084 | 50.82431 | 2251 ft | 181 kts | 205° |
| 2026-05-06 16:23 | 26.24981 | 50.81753 | 1947 ft | 182 kts | 212° |
| 2026-05-06 16:23 | 26.23897 | 50.81026 | 1641 ft | 182 kts | 213° |
| 2026-05-06 16:23 | 26.22809 | 50.80307 | 1523 ft | 184 kts | 212° |
| 2026-05-06 16:24 | 26.21703 | 50.79565 | 1527 ft | 186 kts | 214° |
| 2026-05-06 16:24 | 26.20748 | 50.78641 | 1521 ft | 181 kts | 242° |
| 2026-05-06 16:24 | 26.20297 | 50.77355 | 1533 ft | 178 kts | 261° |
| 2026-05-06 16:24 | 26.20237 | 50.76004 | 1528 ft | 174 kts | 280° |
| 2026-05-06 16:25 | 26.20559 | 50.74720 | 1529 ft | 168 kts | 298° |
| 2026-05-06 16:25 | 26.21143 | 50.73641 | 1530 ft | 161 kts | 305° |
| 2026-05-06 16:25 | 26.21750 | 50.72593 | 1502 ft | 159 kts | 306° |
| 2026-05-06 16:25 | 26.22338 | 50.71576 | 1375 ft | 155 kts | 307° |
| 2026-05-06 16:26 | 26.22931 | 50.70553 | 1205 ft | 162 kts | 305° |
| 2026-05-06 16:26 | 26.23536 | 50.69505 | 991 ft | 157 kts | 306° |
| 2026-05-06 16:26 | 26.24098 | 50.68531 | 808 ft | 144 kts | 304° |
| 2026-05-06 16:26 | 26.24625 | 50.67621 | 644 ft | 137 kts | 304° |
| 2026-05-06 16:27 | 26.25137 | 50.66735 | 469 ft | 135 kts | 304° |
| 2026-05-06 16:27 | 26.25646 | 50.65854 | 297 ft | 136 kts | 303° |
| 2026-05-06 16:27 | 26.26159 | 50.64965 | 98 ft | 136 kts | 304° |
| 2026-05-06 16:27 | 26.26649 | 50.64120 | 16 ft | 115 kts | 302° |
| 2026-05-06 16:28 | 26.26986 | 50.63533 | 15 ft | 65 kts | 303° |
| 2026-05-06 16:28 | 26.27158 | 50.63236 | 15 ft | 38 kts | 303° |
| 2026-05-06 16:28 | 26.27254 | 50.62981 | 16 ft | 27 kts | 272° |
| 2026-05-06 16:28 | 26.27257 | 50.62859 | 18 ft | 6 kts | 267° |
| 2026-05-06 16:29 | 26.27247 | 50.62819 | 19 ft | 2 kts | 226° |
| 2026-05-06 16:29 | 26.27234 | 50.62820 | 20 ft | 3 kts | 179° |
| 2026-05-06 16:29 | 26.27194 | 50.62839 | 20 ft | 8 kts | 142° |
| 2026-05-06 16:29 | 26.27160 | 50.62890 | 21 ft | 8 kts | 124° |
| 2026-05-06 16:30 | 26.27121 | 50.62911 | 22 ft | 6 kts | 193° |
| 2026-05-06 16:30 | 26.27107 | 50.62905 | 23 ft | 6 kts | 204° |
| 2026-05-06 16:30 | 26.27042 | 50.62879 | 24 ft | 6 kts | 136° |
| 2026-05-06 16:30 | 26.27023 | 50.62905 | 22 ft | 7 kts | 127° |
| 2026-05-06 16:31 | 26.26993 | 50.62958 | 22 ft | 9 kts | 121° |
| 2026-05-06 16:31 | 26.26955 | 50.63024 | 24 ft | 11 kts | 122° |
| 2026-05-06 16:31 | 26.26909 | 50.63103 | 23 ft | 12 kts | 132° |
| 2026-05-06 16:31 | 26.26840 | 50.63082 | 23 ft | 12 kts | 212° |
| 2026-05-06 16:32 | 26.26811 | 50.63060 | 21 ft | 0 kts | 214° |